Sunday, January 25, 2015
10:15 UTC
  |  Log In   |  Register Free
Airport Search:

Shenandoah Valley Regional Airport
(KSHD)

Shenandoah Valley Regional Airport Diagram
No Airport Diagram Available

FAA data valid effective January 08, 2015 - March 05, 2015 (unless otherwise noted).

 
 
 
 
 
 
 
 
 
 
 
 
 
 

Current Aviation Weather for Shenandoah Valley Regional Airport (KSHD)

The most recent METAR observation for KSHD was updated at: 0914
METAR Summary (Translated METAR)
KSHD
250855Z AUTO 18005KT 10SM OVC039 02/M04 A2977 RMK AO2 T00201036
KVBW
250855Z AUTO 00000KT 10SM OVC041 02/M03 A2974 RMK AO2 T00171033
(6.9 nm NW from KSHD)
KW13
250855Z AUTO 00000KT 10SM OVC038 00/M04 A2976 RMK AO1 T10051041
(11.4 nm SW from KSHD)
TAF
No TAF information found within 50 nm of KSHD
  Airport Weather Conditions for KSHD

 Current Weather at SHD
37° F
Overcast
South winds at 5.8 mph
SHD NOAA Radar

Pressure: 29.79 in
Humidity: 64%
Wind: South at 5.8 MPH (5 KT)
Dew Point: 25.5°F
Visibility: 10.00 mi


Airport Weather Forecast for KSHD

Translated METAR and TAF for KSHD
Translated METAR for KSHD (1015 UTC 25 January 2015)
found at http://aviationweather.gov/adds/metars/
 
METAR text: KSHD 250955Z AUTO 20006KT 10SM OVC041 03/M04 A2979 RMK AO2 T00251036
Conditions at: KSHD (STAUNTON/SHENAND, VA, US) observed 0955 UTC 25 January 2015
Temperature: 2.5°C (36°F)
Dewpoint: -3.6°C (26°F) [RH = 64%]
Pressure (altimeter): 29.79 inches Hg (1008.9 mb)
Winds: from the SSW (200 degrees) at 7 MPH (6 knots; 3.1 m/s)
Visibility: 10 or more miles (16+ km)
Ceiling: 4100 feet AGL
Clouds: overcast cloud deck at 4100 feet AGL
Weather: automated observation with no human augmentation;
there may or may not be significant weather present at this time
Translated TAF for KSHD

There is no translated TAF available for this airport

Find All Airport Services Find A Hotel Find A Rental Car Find A Golf Course Find A Restaurant $100 Hamburger



FBO's on the Field
FBO Company Facility Photos Services Transportation Aviation Fuel Prices: Prices include tax
Catering Weather Repair Courtesy Rental Type 100LL JetA JetA+ MOGAS 8087
 
Avnet Shenandoah Valley

This FBO has not yet been rated
FS:Avfuel
Last Updated: Jan-22
Login to update fuel prices
SS:
Contact Avnet Shenandoah ValleyMore FBO Information
 
Add another FBO Facility Photos Catering Weather Repair Courtesy Rental Type 100LL JetA JetA+ MOGAS 8087
Services Transportation Aviation Fuel Prices: Prices include tax


model-print
model-print
model-print
model-print